sensor_id;sensor_type;location;lat;lon;timestamp;noise_LAeq;noise_LA_min;noise_LA_max;noise_LA01;noise_LA95
40103;Laerm;25814;48.550;9.108;2023-05-07T00:02:37;31.26;29.82;33.69;;
40103;Laerm;25814;48.550;9.108;2023-05-07T00:05:24;31.33;30.00;33.39;;
40103;Laerm;25814;48.550;9.108;2023-05-07T00:08:10;31.42;30.25;46.41;;
40103;Laerm;25814;48.550;9.108;2023-05-07T00:10:56;31.14;29.70;33.37;;
40103;Laerm;25814;48.550;9.108;2023-05-07T00:13:42;31.21;30.08;34.22;;
40103;Laerm;25814;48.550;9.108;2023-05-07T00:16:28;31.10;29.97;33.00;;
40103;Laerm;25814;48.550;9.108;2023-05-07T00:19:14;31.19;30.02;46.65;;
40103;Laerm;25814;48.550;9.108;2023-05-07T00:22:00;31.29;30.04;42.19;;
40103;Laerm;25814;48.550;9.108;2023-05-07T00:24:46;32.95;30.02;44.70;;
40103;Laerm;25814;48.550;9.108;2023-05-07T00:27:32;31.25;30.10;35.07;;
40103;Laerm;25814;48.550;9.108;2023-05-07T00:30:19;31.11;29.92;46.54;;
40103;Laerm;25814;48.550;9.108;2023-05-07T00:33:05;30.92;29.93;36.48;;
40103;Laerm;25814;48.550;9.108;2023-05-07T00:35:51;30.95;29.84;32.99;;
40103;Laerm;25814;48.550;9.108;2023-05-07T00:38:37;30.92;29.94;36.36;;
40103;Laerm;25814;48.550;9.108;2023-05-07T00:41:23;30.95;30.00;33.08;;
40103;Laerm;25814;48.550;9.108;2023-05-07T00:44:09;31.20;29.89;46.38;;
40103;Laerm;25814;48.550;9.108;2023-05-07T00:46:57;32.04;29.76;34.11;;
40103;Laerm;25814;48.550;9.108;2023-05-07T00:49:44;31.67;29.96;34.24;;
40103;Laerm;25814;48.550;9.108;2023-05-07T00:52:31;30.91;29.88;40.44;;
40103;Laerm;25814;48.550;9.108;2023-05-07T00:55:18;31.08;29.80;33.51;;
40103;Laerm;25814;48.550;9.108;2023-05-07T00:58:04;31.16;30.16;32.95;;
40103;Laerm;25814;48.550;9.108;2023-05-07T01:00:51;31.29;29.99;48.28;;
40103;Laerm;25814;48.550;9.108;2023-05-07T01:03:37;32.00;30.03;39.78;;
40103;Laerm;25814;48.550;9.108;2023-05-07T01:06:25;31.31;30.13;33.34;;
40103;Laerm;25814;48.550;9.108;2023-05-07T01:09:13;31.13;29.98;33.62;;
40103;Laerm;25814;48.550;9.108;2023-05-07T01:12:00;31.13;29.90;33.36;;
40103;Laerm;25814;48.550;9.108;2023-05-07T01:14:46;31.43;29.82;48.74;;
40103;Laerm;25814;48.550;9.108;2023-05-07T01:17:36;31.21;29.99;46.58;;
40103;Laerm;25814;48.550;9.108;2023-05-07T01:20:23;31.08;29.99;39.07;;
40103;Laerm;25814;48.550;9.108;2023-05-07T01:23:11;33.23;29.89;44.97;;
40103;Laerm;25814;48.550;9.108;2023-05-07T01:25:58;30.86;29.83;33.27;;
40103;Laerm;25814;48.550;9.108;2023-05-07T01:28:44;30.97;29.98;38.12;;
40103;Laerm;25814;48.550;9.108;2023-05-07T01:31:30;30.82;29.82;33.29;;
40103;Laerm;25814;48.550;9.108;2023-05-07T01:34:20;31.20;30.03;47.36;;
40103;Laerm;25814;48.550;9.108;2023-05-07T01:37:07;31.11;29.74;39.02;;
40103;Laerm;25814;48.550;9.108;2023-05-07T01:39:54;30.98;30.02;32.93;;
40103;Laerm;25814;48.550;9.108;2023-05-07T01:42:45;31.29;30.01;46.01;;
40103;Laerm;25814;48.550;9.108;2023-05-07T01:45:32;30.91;29.84;35.65;;
40103;Laerm;25814;48.550;9.108;2023-05-07T01:48:20;31.00;29.88;34.16;;
40103;Laerm;25814;48.550;9.108;2023-05-07T01:51:08;30.91;29.78;35.00;;
40103;Laerm;25814;48.550;9.108;2023-05-07T01:53:55;30.87;29.88;33.18;;
40103;Laerm;25814;48.550;9.108;2023-05-07T01:56:41;30.86;29.89;40.38;;
40103;Laerm;25814;48.550;9.108;2023-05-07T01:59:27;30.96;29.94;46.95;;
40103;Laerm;25814;48.550;9.108;2023-05-07T02:02:13;31.02;29.85;35.49;;
40103;Laerm;25814;48.550;9.108;2023-05-07T02:05:00;30.90;29.74;35.95;;
40103;Laerm;25814;48.550;9.108;2023-05-07T02:07:46;30.88;29.87;32.96;;
40103;Laerm;25814;48.550;9.108;2023-05-07T02:10:32;30.97;29.70;47.55;;
40103;Laerm;25814;48.550;9.108;2023-05-07T02:13:19;31.07;29.87;33.05;;
40103;Laerm;25814;48.550;9.108;2023-05-07T02:16:05;30.96;29.89;33.29;;
40103;Laerm;25814;48.550;9.108;2023-05-07T02:18:51;30.97;29.91;37.98;;
40103;Laerm;25814;48.550;9.108;2023-05-07T02:21:37;31.00;29.95;45.67;;
40103;Laerm;25814;48.550;9.108;2023-05-07T02:24:24;32.09;30.10;34.40;;
40103;Laerm;25814;48.550;9.108;2023-05-07T02:27:10;31.92;30.12;34.69;;
40103;Laerm;25814;48.550;9.108;2023-05-07T02:29:56;31.11;29.97;36.50;;
40103;Laerm;25814;48.550;9.108;2023-05-07T02:32:42;31.47;30.04;34.66;;
40103;Laerm;25814;48.550;9.108;2023-05-07T02:35:28;31.29;30.12;40.69;;
40103;Laerm;25814;48.550;9.108;2023-05-07T02:38:14;31.16;29.97;35.66;;
40103;Laerm;25814;48.550;9.108;2023-05-07T02:41:00;31.10;30.02;33.68;;
40103;Laerm;25814;48.550;9.108;2023-05-07T02:43:46;32.07;30.12;47.13;;
40103;Laerm;25814;48.550;9.108;2023-05-07T02:46:33;31.25;30.00;37.43;;
40103;Laerm;25814;48.550;9.108;2023-05-07T02:49:19;31.71;30.17;38.60;;
40103;Laerm;25814;48.550;9.108;2023-05-07T02:52:05;31.63;30.07;38.95;;
40103;Laerm;25814;48.550;9.108;2023-05-07T02:54:51;32.39;30.16;40.59;;
40103;Laerm;25814;48.550;9.108;2023-05-07T02:57:37;34.18;30.28;50.63;;
40103;Laerm;25814;48.550;9.108;2023-05-07T03:00:23;35.14;30.72;43.74;;
40103;Laerm;25814;48.550;9.108;2023-05-07T03:03:09;35.97;31.03;47.00;;
40103;Laerm;25814;48.550;9.108;2023-05-07T03:05:56;44.94;31.07;67.40;;
40103;Laerm;25814;48.550;9.108;2023-05-07T03:08:42;48.63;35.18;63.69;;
40103;Laerm;25814;48.550;9.108;2023-05-07T03:11:28;50.88;32.27;64.43;;
40103;Laerm;25814;48.550;9.108;2023-05-07T03:14:46;50.92;32.62;66.38;;
40103;Laerm;25814;48.550;9.108;2023-05-07T03:18:13;48.23;32.64;62.38;;
40103;Laerm;25814;48.550;9.108;2023-05-07T03:21:40;44.46;32.02;64.88;;
40103;Laerm;25814;48.550;9.108;2023-05-07T03:25:08;46.58;31.42;60.59;;
40103;Laerm;25814;48.550;9.108;2023-05-07T03:28:35;44.12;31.59;55.71;;
40103;Laerm;25814;48.550;9.108;2023-05-07T03:32:02;44.69;31.89;54.77;;
40103;Laerm;25814;48.550;9.108;2023-05-07T03:35:29;49.30;31.86;62.73;;
40103;Laerm;25814;48.550;9.108;2023-05-07T03:38:55;50.90;31.38;62.36;;
40103;Laerm;25814;48.550;9.108;2023-05-07T03:42:23;49.36;31.13;59.41;;
40103;Laerm;25814;48.550;9.108;2023-05-07T03:45:50;47.82;31.21;58.70;;
40103;Laerm;25814;48.550;9.108;2023-05-07T03:49:17;46.20;30.75;56.26;;
40103;Laerm;25814;48.550;9.108;2023-05-07T03:52:44;41.77;30.71;58.60;;
40103;Laerm;25814;48.550;9.108;2023-05-07T03:56:11;46.40;32.95;56.90;;
40103;Laerm;25814;48.550;9.108;2023-05-07T03:59:38;41.53;30.73;53.54;;
40103;Laerm;25814;48.550;9.108;2023-05-07T04:02:24;34.67;31.12;44.85;;
40103;Laerm;25814;48.550;9.108;2023-05-07T04:05:10;37.08;30.77;52.23;;
40103;Laerm;25814;48.550;9.108;2023-05-07T04:07:58;42.10;31.65;53.24;;
40103;Laerm;25814;48.550;9.108;2023-05-07T04:10:44;42.28;31.94;54.15;;
40103;Laerm;25814;48.550;9.108;2023-05-07T04:13:31;35.17;31.13;49.29;;
40103;Laerm;25814;48.550;9.108;2023-05-07T04:16:17;34.54;31.27;45.03;;
40103;Laerm;25814;48.550;9.108;2023-05-07T04:19:03;34.31;30.88;44.83;;
40103;Laerm;25814;48.550;9.108;2023-05-07T04:21:49;33.56;30.73;43.26;;
40103;Laerm;25814;48.550;9.108;2023-05-07T04:24:35;36.22;31.37;44.32;;
40103;Laerm;25814;48.550;9.108;2023-05-07T04:27:21;37.02;31.44;50.80;;
40103;Laerm;25814;48.550;9.108;2023-05-07T04:30:29;48.16;33.87;62.08;;
40103;Laerm;25814;48.550;9.108;2023-05-07T04:33:56;45.62;31.84;61.14;;
40103;Laerm;25814;48.550;9.108;2023-05-07T04:37:23;35.15;30.93;50.71;;
40103;Laerm;25814;48.550;9.108;2023-05-07T04:40:50;33.23;31.24;46.45;;
40103;Laerm;25814;48.550;9.108;2023-05-07T04:44:17;33.40;31.06;42.82;;
40103;Laerm;25814;48.550;9.108;2023-05-07T04:47:44;40.56;31.05;56.76;;
40103;Laerm;25814;48.550;9.108;2023-05-07T04:51:11;38.76;30.98;57.95;;
40103;Laerm;25814;48.550;9.108;2023-05-07T04:54:38;39.86;30.61;61.07;;
40103;Laerm;25814;48.550;9.108;2023-05-07T04:58:05;47.56;31.16;60.12;;
40103;Laerm;25814;48.550;9.108;2023-05-07T05:01:32;40.53;30.92;55.44;;
40103;Laerm;25814;48.550;9.108;2023-05-07T05:05:00;34.28;30.81;43.40;;
40103;Laerm;25814;48.550;9.108;2023-05-07T05:08:29;35.11;30.87;43.07;;
40103;Laerm;25814;48.550;9.108;2023-05-07T05:11:57;35.13;31.12;41.41;;
40103;Laerm;25814;48.550;9.108;2023-05-07T05:15:24;36.98;31.51;52.01;;
40103;Laerm;25814;48.550;9.108;2023-05-07T05:18:42;40.89;31.54;63.10;;
40103;Laerm;25814;48.550;9.108;2023-05-07T05:22:08;33.48;30.69;41.50;;
40103;Laerm;25814;48.550;9.108;2023-05-07T05:25:35;34.96;30.88;43.39;;
40103;Laerm;25814;48.550;9.108;2023-05-07T05:29:03;45.72;31.22;60.63;;
40103;Laerm;25814;48.550;9.108;2023-05-07T05:32:30;52.51;30.67;72.69;;
40103;Laerm;25814;48.550;9.108;2023-05-07T05:35:57;34.79;30.70;48.81;;
40103;Laerm;25814;48.550;9.108;2023-05-07T05:39:24;33.95;30.77;47.60;;
40103;Laerm;25814;48.550;9.108;2023-05-07T05:42:50;37.00;30.93;46.49;;
40103;Laerm;25814;48.550;9.108;2023-05-07T05:46:17;36.59;30.96;52.88;;
40103;Laerm;25814;48.550;9.108;2023-05-07T05:49:44;35.38;31.04;46.39;;
40103;Laerm;25814;48.550;9.108;2023-05-07T05:53:11;36.93;30.91;47.18;;
40103;Laerm;25814;48.550;9.108;2023-05-07T05:56:38;43.04;30.89;57.54;;
40103;Laerm;25814;48.550;9.108;2023-05-07T06:00:06;34.71;30.42;51.50;;
40103;Laerm;25814;48.550;9.108;2023-05-07T06:03:33;33.66;31.04;42.11;;
40103;Laerm;25814;48.550;9.108;2023-05-07T06:07:00;33.96;30.39;46.30;;
40103;Laerm;25814;48.550;9.108;2023-05-07T06:10:27;33.74;30.76;40.24;;
40103;Laerm;25814;48.550;9.108;2023-05-07T06:13:54;36.45;31.64;49.28;;
40103;Laerm;25814;48.550;9.108;2023-05-07T06:16:40;40.94;31.06;53.28;;
40103;Laerm;25814;48.550;9.108;2023-05-07T06:19:27;40.73;30.92;53.24;;
40103;Laerm;25814;48.550;9.108;2023-05-07T06:22:46;46.76;30.68;65.47;;
40103;Laerm;25814;48.550;9.108;2023-05-07T06:26:12;40.83;30.84;56.93;;
40103;Laerm;25814;48.550;9.108;2023-05-07T06:29:39;47.95;31.06;59.85;;
40103;Laerm;25814;48.550;9.108;2023-05-07T06:33:06;38.50;30.79;52.37;;
40103;Laerm;25814;48.550;9.108;2023-05-07T06:36:33;46.77;31.10;56.55;;
40103;Laerm;25814;48.550;9.108;2023-05-07T06:40:01;43.70;30.92;57.05;;
40103;Laerm;25814;48.550;9.108;2023-05-07T06:43:28;35.86;31.08;47.46;;
40103;Laerm;25814;48.550;9.108;2023-05-07T06:46:54;33.86;30.90;46.55;;
40103;Laerm;25814;48.550;9.108;2023-05-07T06:50:21;52.49;31.95;68.93;;
40103;Laerm;25814;48.550;9.108;2023-05-07T06:53:48;40.71;31.08;63.65;;
40103;Laerm;25814;48.550;9.108;2023-05-07T06:57:15;38.58;30.97;58.21;;
40103;Laerm;25814;48.550;9.108;2023-05-07T07:00:42;47.36;30.27;66.45;;
40103;Laerm;25814;48.550;9.108;2023-05-07T07:04:09;41.77;30.37;60.64;;
40103;Laerm;25814;48.550;9.108;2023-05-07T07:07:36;41.57;30.11;59.28;;
40103;Laerm;25814;48.550;9.108;2023-05-07T07:11:03;42.94;30.28;60.55;;
40103;Laerm;25814;48.550;9.108;2023-05-07T07:14:30;44.10;30.35;55.94;;
40103;Laerm;25814;48.550;9.108;2023-05-07T07:17:57;38.11;30.07;55.27;;
40103;Laerm;25814;48.550;9.108;2023-05-07T07:21:23;38.58;30.24;52.92;;
40103;Laerm;25814;48.550;9.108;2023-05-07T07:24:50;36.60;31.08;47.32;;
40103;Laerm;25814;48.550;9.108;2023-05-07T07:28:17;33.76;31.03;47.57;;
40103;Laerm;25814;48.550;9.108;2023-05-07T07:31:44;36.54;31.60;47.53;;
40103;Laerm;25814;48.550;9.108;2023-05-07T07:35:11;41.65;30.70;65.44;;
40103;Laerm;25814;48.550;9.108;2023-05-07T07:37:58;37.85;30.73;51.35;;
40103;Laerm;25814;48.550;9.108;2023-05-07T07:40:44;40.47;30.98;46.98;;
40103;Laerm;25814;48.550;9.108;2023-05-07T07:43:31;40.98;30.56;53.96;;
40103;Laerm;25814;48.550;9.108;2023-05-07T07:46:17;33.94;30.41;47.31;;
40103;Laerm;25814;48.550;9.108;2023-05-07T07:49:03;32.92;29.62;51.79;;
40103;Laerm;25814;48.550;9.108;2023-05-07T07:51:49;40.30;29.44;59.99;;
40103;Laerm;25814;48.550;9.108;2023-05-07T07:54:36;51.02;30.37;62.55;;
40103;Laerm;25814;48.550;9.108;2023-05-07T07:57:56;51.62;33.39;68.96;;
40103;Laerm;25814;48.550;9.108;2023-05-07T08:01:23;51.37;32.69;62.58;;
40103;Laerm;25814;48.550;9.108;2023-05-07T08:04:52;43.72;30.38;60.33;;
40103;Laerm;25814;48.550;9.108;2023-05-07T08:08:19;34.83;29.82;48.59;;
40103;Laerm;25814;48.550;9.108;2023-05-07T08:11:46;44.08;29.99;62.34;;
40103;Laerm;25814;48.550;9.108;2023-05-07T08:15:12;40.74;29.91;57.38;;
40103;Laerm;25814;48.550;9.108;2023-05-07T08:18:39;39.25;31.38;58.17;;
40103;Laerm;25814;48.550;9.108;2023-05-07T08:22:06;38.84;29.97;57.64;;
40103;Laerm;25814;48.550;9.108;2023-05-07T08:25:34;36.01;30.03;55.03;;
40103;Laerm;25814;48.550;9.108;2023-05-07T08:29:01;35.19;30.90;51.53;;
40103;Laerm;25814;48.550;9.108;2023-05-07T08:32:27;36.05;31.20;48.66;;
40103;Laerm;25814;48.550;9.108;2023-05-07T08:35:54;35.91;30.28;47.64;;
40103;Laerm;25814;48.550;9.108;2023-05-07T08:39:21;40.54;30.54;55.26;;
40103;Laerm;25814;48.550;9.108;2023-05-07T08:42:09;34.98;30.18;49.43;;
40103;Laerm;25814;48.550;9.108;2023-05-07T08:44:57;35.67;30.04;48.46;;
40103;Laerm;25814;48.550;9.108;2023-05-07T08:47:51;33.80;30.04;48.07;;
40103;Laerm;25814;48.550;9.108;2023-05-07T08:50:38;35.71;30.47;50.77;;
40103;Laerm;25814;48.550;9.108;2023-05-07T08:53:24;34.58;30.76;47.88;;
40103;Laerm;25814;48.550;9.108;2023-05-07T08:56:12;33.12;30.14;47.98;;
40103;Laerm;25814;48.550;9.108;2023-05-07T08:58:58;35.47;30.22;48.00;;
40103;Laerm;25814;48.550;9.108;2023-05-07T09:01:44;33.35;30.38;48.43;;
40103;Laerm;25814;48.550;9.108;2023-05-07T09:04:30;32.33;30.11;46.95;;
40103;Laerm;25814;48.550;9.108;2023-05-07T09:07:17;38.02;30.13;48.12;;
40103;Laerm;25814;48.550;9.108;2023-05-07T09:10:04;36.36;30.44;50.94;;
40103;Laerm;25814;48.550;9.108;2023-05-07T09:12:51;35.04;30.19;58.15;;
40103;Laerm;25814;48.550;9.108;2023-05-07T09:15:37;33.53;30.53;52.47;;
40103;Laerm;25814;48.550;9.108;2023-05-07T09:18:26;33.42;30.36;48.14;;
40103;Laerm;25814;48.550;9.108;2023-05-07T09:21:16;34.39;30.67;49.77;;
40103;Laerm;25814;48.550;9.108;2023-05-07T09:24:02;32.99;29.98;47.21;;
40103;Laerm;25814;48.550;9.108;2023-05-07T09:26:48;34.69;30.86;48.07;;
40103;Laerm;25814;48.550;9.108;2023-05-07T09:29:34;35.40;30.60;50.78;;
40103;Laerm;25814;48.550;9.108;2023-05-07T09:32:20;34.35;30.71;48.21;;
40103;Laerm;25814;48.550;9.108;2023-05-07T09:35:15;33.23;30.33;48.30;;
40103;Laerm;25814;48.550;9.108;2023-05-07T09:38:02;32.92;30.30;43.30;;
40103;Laerm;25814;48.550;9.108;2023-05-07T09:41:02;35.46;30.55;48.63;;
40103;Laerm;25814;48.550;9.108;2023-05-07T09:43:54;36.48;30.33;51.72;;
40103;Laerm;25814;48.550;9.108;2023-05-07T09:46:43;36.67;30.33;49.09;;
40103;Laerm;25814;48.550;9.108;2023-05-07T09:49:30;38.10;30.58;52.96;;
40103;Laerm;25814;48.550;9.108;2023-05-07T09:52:20;36.24;31.94;47.12;;
40103;Laerm;25814;48.550;9.108;2023-05-07T09:55:07;39.06;32.27;51.61;;
40103;Laerm;25814;48.550;9.108;2023-05-07T09:57:53;37.75;33.24;48.70;;
40103;Laerm;25814;48.550;9.108;2023-05-07T10:00:42;35.03;32.02;46.24;;
40103;Laerm;25814;48.550;9.108;2023-05-07T10:03:31;42.63;32.44;53.90;;
40103;Laerm;25814;48.550;9.108;2023-05-07T10:06:20;39.21;31.95;50.84;;
40103;Laerm;25814;48.550;9.108;2023-05-07T10:09:07;42.51;30.24;63.53;;
40103;Laerm;25814;48.550;9.108;2023-05-07T10:12:28;48.96;30.13;65.55;;
40103;Laerm;25814;48.550;9.108;2023-05-07T10:16:06;34.80;30.12;49.32;;
40103;Laerm;25814;48.550;9.108;2023-05-07T10:19:34;34.42;30.30;46.86;;
40103;Laerm;25814;48.550;9.108;2023-05-07T10:23:05;36.08;30.39;51.73;;
40103;Laerm;25814;48.550;9.108;2023-05-07T10:26:33;43.00;30.67;58.05;;
40103;Laerm;25814;48.550;9.108;2023-05-07T10:34:13;49.09;31.44;65.86;;
40103;Laerm;25814;48.550;9.108;2023-05-07T10:37:45;36.88;30.78;51.53;;
40103;Laerm;25814;48.550;9.108;2023-05-07T10:41:12;40.35;31.71;50.66;;
40103;Laerm;25814;48.550;9.108;2023-05-07T10:44:41;35.79;31.59;55.26;;
40103;Laerm;25814;48.550;9.108;2023-05-07T10:48:17;48.40;31.60;62.85;;
40103;Laerm;25814;48.550;9.108;2023-05-07T10:51:44;40.35;31.05;56.02;;
40103;Laerm;25814;48.550;9.108;2023-05-07T10:58:47;33.74;31.01;43.93;;
40103;Laerm;25814;48.550;9.108;2023-05-07T11:02:14;36.15;31.04;57.01;;
40103;Laerm;25814;48.550;9.108;2023-05-07T11:05:42;34.11;30.36;47.83;;
40103;Laerm;25814;48.550;9.108;2023-05-07T11:09:09;34.06;30.77;46.32;;
40103;Laerm;25814;48.550;9.108;2023-05-07T11:16:25;38.50;30.07;55.90;;
40103;Laerm;25814;48.550;9.108;2023-05-07T11:19:56;46.04;30.70;62.69;;
40103;Laerm;25814;48.550;9.108;2023-05-07T11:27:02;33.67;30.26;44.48;;
40103;Laerm;25814;48.550;9.108;2023-05-07T11:30:29;32.47;29.99;45.79;;
40103;Laerm;25814;48.550;9.108;2023-05-07T11:33:17;33.51;29.74;46.31;;
40103;Laerm;25814;48.550;9.108;2023-05-07T11:36:05;39.50;30.21;66.04;;
40103;Laerm;25814;48.550;9.108;2023-05-07T11:38:53;40.02;30.48;55.71;;
40103;Laerm;25814;48.550;9.108;2023-05-07T11:41:40;37.11;31.37;49.22;;
40103;Laerm;25814;48.550;9.108;2023-05-07T11:44:46;35.01;30.67;47.01;;
40103;Laerm;25814;48.550;9.108;2023-05-07T11:47:34;34.48;30.47;45.14;;
40103;Laerm;25814;48.550;9.108;2023-05-07T11:50:20;36.75;30.10;49.08;;
40103;Laerm;25814;48.550;9.108;2023-05-07T11:53:07;34.72;30.33;54.09;;
40103;Laerm;25814;48.550;9.108;2023-05-07T11:55:55;42.25;31.01;61.72;;
40103;Laerm;25814;48.550;9.108;2023-05-07T11:58:43;35.71;30.92;53.63;;
40103;Laerm;25814;48.550;9.108;2023-05-07T12:01:29;34.42;31.08;45.42;;
40103;Laerm;25814;48.550;9.108;2023-05-07T12:04:19;32.95;30.33;44.87;;
40103;Laerm;25814;48.550;9.108;2023-05-07T12:07:12;41.86;30.59;59.74;;
40103;Laerm;25814;48.550;9.108;2023-05-07T12:10:34;45.24;32.60;67.42;;
40103;Laerm;25814;48.550;9.108;2023-05-07T12:14:01;42.09;31.08;54.73;;
40103;Laerm;25814;48.550;9.108;2023-05-07T12:17:28;42.83;32.04;55.00;;
40103;Laerm;25814;48.550;9.108;2023-05-07T12:20:55;43.04;32.82;55.64;;
40103;Laerm;25814;48.550;9.108;2023-05-07T12:24:22;44.32;32.35;58.04;;
40103;Laerm;25814;48.550;9.108;2023-05-07T12:27:53;39.46;32.69;52.30;;
40103;Laerm;25814;48.550;9.108;2023-05-07T12:31:20;38.07;31.29;50.55;;
40103;Laerm;25814;48.550;9.108;2023-05-07T12:34:50;46.07;30.53;67.47;;
40103;Laerm;25814;48.550;9.108;2023-05-07T12:38:17;39.29;30.83;53.45;;
40103;Laerm;25814;48.550;9.108;2023-05-07T12:41:59;43.01;32.99;54.74;;
40103;Laerm;25814;48.550;9.108;2023-05-07T12:45:26;46.64;36.33;57.03;;
40103;Laerm;25814;48.550;9.108;2023-05-07T12:48:53;47.18;36.49;54.85;;
40103;Laerm;25814;48.550;9.108;2023-05-07T12:52:20;45.29;36.99;57.65;;
40103;Laerm;25814;48.550;9.108;2023-05-07T12:55:51;48.09;36.11;55.52;;
40103;Laerm;25814;48.550;9.108;2023-05-07T12:59:18;45.53;36.90;57.47;;
40103;Laerm;25814;48.550;9.108;2023-05-07T13:02:45;51.21;43.17;68.95;;
40103;Laerm;25814;48.550;9.108;2023-05-07T13:06:12;52.62;40.87;68.47;;
40103;Laerm;25814;48.550;9.108;2023-05-07T13:09:39;53.81;39.33;72.02;;
40103;Laerm;25814;48.550;9.108;2023-05-07T13:13:06;65.87;37.07;90.99;;
40103;Laerm;25814;48.550;9.108;2023-05-07T13:16:32;59.35;37.43;83.30;;
40103;Laerm;25814;48.550;9.108;2023-05-07T13:19:59;61.35;45.33;79.61;;
40103;Laerm;25814;48.550;9.108;2023-05-07T13:23:27;60.54;49.39;77.07;;
40103;Laerm;25814;48.550;9.108;2023-05-07T13:26:54;67.03;59.10;85.05;;
40103;Laerm;25814;48.550;9.108;2023-05-07T13:30:21;56.21;50.35;66.28;;
40103;Laerm;25814;48.550;9.108;2023-05-07T13:33:48;55.59;44.12;74.78;;
40103;Laerm;25814;48.550;9.108;2023-05-07T13:37:15;46.41;42.87;52.96;;
40103;Laerm;25814;48.550;9.108;2023-05-07T13:40:46;50.49;42.64;56.91;;
40103;Laerm;25814;48.550;9.108;2023-05-07T13:44:13;52.11;47.86;69.40;;
40103;Laerm;25814;48.550;9.108;2023-05-07T13:47:41;50.53;46.57;65.24;;
40103;Laerm;25814;48.550;9.108;2023-05-07T13:51:08;52.16;49.07;56.33;;
40103;Laerm;25814;48.550;9.108;2023-05-07T13:54:35;54.00;50.17;60.85;;
40103;Laerm;25814;48.550;9.108;2023-05-07T13:58:03;55.20;52.50;58.83;;
40103;Laerm;25814;48.550;9.108;2023-05-07T14:01:31;55.13;52.43;59.78;;
40103;Laerm;25814;48.550;9.108;2023-05-07T14:04:57;52.42;49.04;58.11;;
40103;Laerm;25814;48.550;9.108;2023-05-07T14:08:24;51.06;48.50;57.15;;
40103;Laerm;25814;48.550;9.108;2023-05-07T14:11:51;53.64;48.84;58.86;;
40103;Laerm;25814;48.550;9.108;2023-05-07T14:15:18;55.10;52.69;59.56;;
40103;Laerm;25814;48.550;9.108;2023-05-07T14:18:45;56.47;53.66;62.86;;
40103;Laerm;25814;48.550;9.108;2023-05-07T14:22:13;54.22;47.18;60.45;;
40103;Laerm;25814;48.550;9.108;2023-05-07T14:25:41;53.50;46.80;58.69;;
40103;Laerm;25814;48.550;9.108;2023-05-07T14:29:09;49.05;43.87;54.34;;
40103;Laerm;25814;48.550;9.108;2023-05-07T14:32:36;46.16;42.72;51.55;;
40103;Laerm;25814;48.550;9.108;2023-05-07T14:36:03;44.65;39.71;53.50;;
40103;Laerm;25814;48.550;9.108;2023-05-07T14:39:30;43.83;40.94;51.57;;
40103;Laerm;25814;48.550;9.108;2023-05-07T14:42:57;44.55;41.62;57.18;;
40103;Laerm;25814;48.550;9.108;2023-05-07T14:46:24;42.50;39.82;50.84;;
40103;Laerm;25814;48.550;9.108;2023-05-07T14:49:52;42.20;38.05;52.28;;
40103;Laerm;25814;48.550;9.108;2023-05-07T14:53:19;39.63;35.79;49.60;;
40103;Laerm;25814;48.550;9.108;2023-05-07T14:56:46;38.24;35.19;46.74;;
40103;Laerm;25814;48.550;9.108;2023-05-07T15:00:13;39.04;33.80;52.01;;
40103;Laerm;25814;48.550;9.108;2023-05-07T15:03:40;38.01;33.79;45.90;;
40103;Laerm;25814;48.550;9.108;2023-05-07T15:07:07;35.30;31.68;45.19;;
40103;Laerm;25814;48.550;9.108;2023-05-07T15:09:53;43.66;31.79;57.47;;
40103;Laerm;25814;48.550;9.108;2023-05-07T15:12:39;34.54;31.51;49.64;;
40103;Laerm;25814;48.550;9.108;2023-05-07T15:15:25;36.62;31.13;45.07;;
40103;Laerm;25814;48.550;9.108;2023-05-07T15:18:11;40.87;31.27;52.40;;
40103;Laerm;25814;48.550;9.108;2023-05-07T15:20:57;36.30;30.82;51.50;;
40103;Laerm;25814;48.550;9.108;2023-05-07T15:23:43;35.29;30.40;49.42;;
40103;Laerm;25814;48.550;9.108;2023-05-07T15:26:29;34.22;29.95;42.47;;
40103;Laerm;25814;48.550;9.108;2023-05-07T15:29:16;34.75;29.98;46.63;;
40103;Laerm;25814;48.550;9.108;2023-05-07T15:32:02;45.09;29.73;60.58;;
40103;Laerm;25814;48.550;9.108;2023-05-07T15:34:48;34.41;30.20;52.95;;
40103;Laerm;25814;48.550;9.108;2023-05-07T15:37:34;32.15;29.67;39.52;;
40103;Laerm;25814;48.550;9.108;2023-05-07T15:40:20;39.33;30.86;51.28;;
40103;Laerm;25814;48.550;9.108;2023-05-07T15:43:07;43.26;29.48;60.03;;
40103;Laerm;25814;48.550;9.108;2023-05-07T15:45:53;33.66;29.72;43.07;;
40103;Laerm;25814;48.550;9.108;2023-05-07T15:48:39;36.17;29.68;51.73;;
40103;Laerm;25814;48.550;9.108;2023-05-07T15:51:25;42.06;29.97;51.96;;
40103;Laerm;25814;48.550;9.108;2023-05-07T15:54:12;36.12;29.69;53.36;;
40103;Laerm;25814;48.550;9.108;2023-05-07T15:56:58;38.08;30.52;59.05;;
40103;Laerm;25814;48.550;9.108;2023-05-07T15:59:45;39.93;30.24;53.93;;
40103;Laerm;25814;48.550;9.108;2023-05-07T16:02:31;47.52;29.86;60.52;;
40103;Laerm;25814;48.550;9.108;2023-05-07T16:05:18;47.39;30.90;58.19;;
40103;Laerm;25814;48.550;9.108;2023-05-07T16:08:04;48.04;30.75;60.37;;
40103;Laerm;25814;48.550;9.108;2023-05-07T16:10:50;41.98;30.84;59.23;;
40103;Laerm;25814;48.550;9.108;2023-05-07T16:13:36;42.23;35.92;60.38;;
40103;Laerm;25814;48.550;9.108;2023-05-07T16:16:22;40.28;35.51;52.56;;
40103;Laerm;25814;48.550;9.108;2023-05-07T16:19:10;36.97;31.03;48.45;;
40103;Laerm;25814;48.550;9.108;2023-05-07T16:21:56;35.70;30.26;46.24;;
40103;Laerm;25814;48.550;9.108;2023-05-07T16:24:43;37.82;31.36;55.34;;
40103;Laerm;25814;48.550;9.108;2023-05-07T16:27:29;38.58;30.34;55.63;;
40103;Laerm;25814;48.550;9.108;2023-05-07T16:30:15;40.50;31.43;58.33;;
40103;Laerm;25814;48.550;9.108;2023-05-07T16:33:01;40.90;30.79;59.31;;
40103;Laerm;25814;48.550;9.108;2023-05-07T16:35:51;42.91;30.70;61.14;;
40103;Laerm;25814;48.550;9.108;2023-05-07T16:38:37;37.35;30.46;51.30;;
40103;Laerm;25814;48.550;9.108;2023-05-07T16:41:53;43.01;31.21;67.33;;
40103;Laerm;25814;48.550;9.108;2023-05-07T16:45:20;36.53;30.23;52.13;;
40103;Laerm;25814;48.550;9.108;2023-05-07T16:48:46;39.33;30.37;56.13;;
40103;Laerm;25814;48.550;9.108;2023-05-07T16:52:13;39.74;29.49;54.16;;
40103;Laerm;25814;48.550;9.108;2023-05-07T16:55:40;42.60;29.58;55.55;;
40103;Laerm;25814;48.550;9.108;2023-05-07T16:59:07;44.72;32.01;56.13;;
40103;Laerm;25814;48.550;9.108;2023-05-07T17:02:35;48.99;29.69;67.57;;
40103;Laerm;25814;48.550;9.108;2023-05-07T17:06:01;39.52;29.62;55.35;;
40103;Laerm;25814;48.550;9.108;2023-05-07T17:09:28;41.81;30.79;57.87;;
40103;Laerm;25814;48.550;9.108;2023-05-07T17:12:55;43.27;29.64;62.26;;
40103;Laerm;25814;48.550;9.108;2023-05-07T17:16:22;38.85;29.99;48.42;;
40103;Laerm;25814;48.550;9.108;2023-05-07T17:19:49;49.78;30.04;77.57;;
40103;Laerm;25814;48.550;9.108;2023-05-07T17:23:16;43.61;29.60;67.80;;
40103;Laerm;25814;48.550;9.108;2023-05-07T17:26:02;44.18;30.07;67.47;;
40103;Laerm;25814;48.550;9.108;2023-05-07T17:28:28;43.17;30.92;57.51;;
40103;Laerm;25814;48.550;9.108;2023-05-07T17:30:55;41.50;31.46;56.01;;
40103;Laerm;25814;48.550;9.108;2023-05-07T17:33:22;46.54;31.36;71.58;;
40103;Laerm;25814;48.550;9.108;2023-05-07T17:35:48;38.47;32.38;50.83;;
40103;Laerm;25814;48.550;9.108;2023-05-07T17:38:15;37.24;30.36;53.13;;